sensor_id;sensor_type;location;lat;lon;timestamp;P1;durP1;ratioP1;P2;durP2;ratioP2
49412;SDS011;35493;50.276;9.372;2023-02-17T00:00:09;17.58;;;11.10;;
49412;SDS011;35493;50.276;9.372;2023-02-17T00:02:37;17.88;;;10.38;;
49412;SDS011;35493;50.276;9.372;2023-02-17T00:05:05;17.05;;;10.27;;
49412;SDS011;35493;50.276;9.372;2023-02-17T00:07:37;17.25;;;10.15;;
49412;SDS011;35493;50.276;9.372;2023-02-17T00:10:05;16.60;;;10.43;;
49412;SDS011;35493;50.276;9.372;2023-02-17T00:12:34;19.65;;;10.10;;
49412;SDS011;35493;50.276;9.372;2023-02-17T00:15:01;16.90;;;10.32;;
49412;SDS011;35493;50.276;9.372;2023-02-17T00:17:35;17.55;;;9.95;;
49412;SDS011;35493;50.276;9.372;2023-02-17T00:20:02;18.58;;;10.32;;
49412;SDS011;35493;50.276;9.372;2023-02-17T00:22:30;19.95;;;10.75;;
49412;SDS011;35493;50.276;9.372;2023-02-17T00:24:57;16.77;;;10.75;;
49412;SDS011;35493;50.276;9.372;2023-02-17T00:27:24;17.10;;;10.27;;
49412;SDS011;35493;50.276;9.372;2023-02-17T00:29:52;17.20;;;10.38;;
49412;SDS011;35493;50.276;9.372;2023-02-17T00:32:19;16.00;;;10.43;;
49412;SDS011;35493;50.276;9.372;2023-02-17T00:34:48;15.70;;;9.75;;
49412;SDS011;35493;50.276;9.372;2023-02-17T00:37:16;18.63;;;10.98;;
49412;SDS011;35493;50.276;9.372;2023-02-17T00:39:43;15.25;;;10.23;;
49412;SDS011;35493;50.276;9.372;2023-02-17T00:42:10;15.93;;;10.05;;
49412;SDS011;35493;50.276;9.372;2023-02-17T00:44:37;15.52;;;10.43;;
49412;SDS011;35493;50.276;9.372;2023-02-17T00:47:05;18.02;;;10.45;;
49412;SDS011;35493;50.276;9.372;2023-02-17T00:49:32;16.83;;;9.98;;
49412;SDS011;35493;50.276;9.372;2023-02-17T00:51:59;17.33;;;10.23;;
49412;SDS011;35493;50.276;9.372;2023-02-17T00:54:26;15.77;;;9.63;;
49412;SDS011;35493;50.276;9.372;2023-02-17T00:56:57;18.10;;;10.20;;
49412;SDS011;35493;50.276;9.372;2023-02-17T00:59:24;17.88;;;9.90;;
49412;SDS011;35493;50.276;9.372;2023-02-17T01:01:51;15.40;;;9.57;;
49412;SDS011;35493;50.276;9.372;2023-02-17T01:04:19;15.02;;;9.43;;
49412;SDS011;35493;50.276;9.372;2023-02-17T01:06:46;17.58;;;10.82;;
49412;SDS011;35493;50.276;9.372;2023-02-17T01:09:13;17.02;;;10.95;;
49412;SDS011;35493;50.276;9.372;2023-02-17T01:11:40;16.70;;;10.13;;
49412;SDS011;35493;50.276;9.372;2023-02-17T01:14:09;17.70;;;10.00;;
49412;SDS011;35493;50.276;9.372;2023-02-17T01:16:39;16.55;;;9.27;;
49412;SDS011;35493;50.276;9.372;2023-02-17T01:19:17;15.98;;;9.50;;
49412;SDS011;35493;50.276;9.372;2023-02-17T01:21:47;16.67;;;9.65;;
49412;SDS011;35493;50.276;9.372;2023-02-17T01:24:14;14.70;;;9.45;;
49412;SDS011;35493;50.276;9.372;2023-02-17T01:26:41;19.05;;;9.43;;
49412;SDS011;35493;50.276;9.372;2023-02-17T01:29:08;16.40;;;9.60;;
49412;SDS011;35493;50.276;9.372;2023-02-17T01:31:35;18.55;;;10.52;;
49412;SDS011;35493;50.276;9.372;2023-02-17T01:34:02;18.38;;;10.68;;
49412;SDS011;35493;50.276;9.372;2023-02-17T01:36:30;16.88;;;10.45;;
49412;SDS011;35493;50.276;9.372;2023-02-17T01:38:59;16.67;;;10.35;;
49412;SDS011;35493;50.276;9.372;2023-02-17T01:41:28;17.15;;;11.18;;
49412;SDS011;35493;50.276;9.372;2023-02-17T01:44:05;17.45;;;10.52;;
49412;SDS011;35493;50.276;9.372;2023-02-17T01:46:38;16.85;;;10.20;;
49412;SDS011;35493;50.276;9.372;2023-02-17T01:49:10;20.02;;;10.77;;
49412;SDS011;35493;50.276;9.372;2023-02-17T01:51:42;18.75;;;10.30;;
49412;SDS011;35493;50.276;9.372;2023-02-17T01:54:15;17.40;;;10.52;;
49412;SDS011;35493;50.276;9.372;2023-02-17T01:56:47;14.93;;;9.88;;
49412;SDS011;35493;50.276;9.372;2023-02-17T01:59:16;16.00;;;9.90;;
49412;SDS011;35493;50.276;9.372;2023-02-17T02:01:47;17.58;;;9.93;;
49412;SDS011;35493;50.276;9.372;2023-02-17T02:04:18;16.63;;;10.02;;
49412;SDS011;35493;50.276;9.372;2023-02-17T02:06:47;18.33;;;10.63;;
49412;SDS011;35493;50.276;9.372;2023-02-17T02:09:17;17.35;;;9.88;;
49412;SDS011;35493;50.276;9.372;2023-02-17T02:11:47;16.70;;;10.60;;
49412;SDS011;35493;50.276;9.372;2023-02-17T02:14:14;18.13;;;10.43;;
49412;SDS011;35493;50.276;9.372;2023-02-17T02:16:44;16.70;;;10.43;;
49412;SDS011;35493;50.276;9.372;2023-02-17T02:19:25;15.02;;;9.68;;
49412;SDS011;35493;50.276;9.372;2023-02-17T02:22:09;16.30;;;10.48;;
49412;SDS011;35493;50.276;9.372;2023-02-17T02:25:00;16.50;;;10.52;;
49412;SDS011;35493;50.276;9.372;2023-02-17T02:27:42;15.98;;;10.80;;
49412;SDS011;35493;50.276;9.372;2023-02-17T02:30:19;15.25;;;9.43;;
49412;SDS011;35493;50.276;9.372;2023-02-17T02:33:13;14.73;;;9.50;;
49412;SDS011;35493;50.276;9.372;2023-02-17T02:35:50;15.63;;;9.90;;
49412;SDS011;35493;50.276;9.372;2023-02-17T02:38:24;15.60;;;9.68;;
49412;SDS011;35493;50.276;9.372;2023-02-17T02:40:55;14.50;;;9.30;;
49412;SDS011;35493;50.276;9.372;2023-02-17T02:43:25;14.40;;;8.57;;
49412;SDS011;35493;50.276;9.372;2023-02-17T02:45:52;16.00;;;9.40;;
49412;SDS011;35493;50.276;9.372;2023-02-17T02:48:20;14.98;;;9.45;;
49412;SDS011;35493;50.276;9.372;2023-02-17T02:50:59;14.77;;;8.60;;
49412;SDS011;35493;50.276;9.372;2023-02-17T02:53:51;15.20;;;9.23;;
49412;SDS011;35493;50.276;9.372;2023-02-17T02:56:50;15.07;;;9.18;;
49412;SDS011;35493;50.276;9.372;2023-02-17T02:59:32;16.13;;;8.95;;
49412;SDS011;35493;50.276;9.372;2023-02-17T03:02:11;16.13;;;9.50;;
49412;SDS011;35493;50.276;9.372;2023-02-17T03:04:47;15.40;;;9.15;;
49412;SDS011;35493;50.276;9.372;2023-02-17T03:07:20;16.23;;;9.18;;
49412;SDS011;35493;50.276;9.372;2023-02-17T03:09:52;16.05;;;9.20;;
49412;SDS011;35493;50.276;9.372;2023-02-17T03:12:22;16.40;;;9.13;;
49412;SDS011;35493;50.276;9.372;2023-02-17T03:14:53;14.38;;;8.82;;
49412;SDS011;35493;50.276;9.372;2023-02-17T03:19:50;13.52;;;8.45;;
49412;SDS011;35493;50.276;9.372;2023-02-17T03:22:19;15.05;;;8.48;;
49412;SDS011;35493;50.276;9.372;2023-02-17T03:24:49;15.52;;;8.93;;
49412;SDS011;35493;50.276;9.372;2023-02-17T03:27:16;12.43;;;8.35;;
49412;SDS011;35493;50.276;9.372;2023-02-17T03:29:43;14.88;;;8.93;;
49412;SDS011;35493;50.276;9.372;2023-02-17T03:32:10;14.25;;;8.38;;
49412;SDS011;35493;50.276;9.372;2023-02-17T03:34:37;16.08;;;9.13;;
49412;SDS011;35493;50.276;9.372;2023-02-17T03:37:05;15.20;;;8.27;;
49412;SDS011;35493;50.276;9.372;2023-02-17T03:39:32;13.82;;;8.60;;
49412;SDS011;35493;50.276;9.372;2023-02-17T03:41:59;15.90;;;8.85;;
49412;SDS011;35493;50.276;9.372;2023-02-17T03:44:26;14.88;;;8.05;;
49412;SDS011;35493;50.276;9.372;2023-02-17T03:46:53;13.20;;;7.93;;
49412;SDS011;35493;50.276;9.372;2023-02-17T03:49:20;13.45;;;8.65;;
49412;SDS011;35493;50.276;9.372;2023-02-17T03:51:47;13.60;;;8.43;;
49412;SDS011;35493;50.276;9.372;2023-02-17T03:54:15;13.68;;;8.05;;
49412;SDS011;35493;50.276;9.372;2023-02-17T03:56:42;14.02;;;8.20;;
49412;SDS011;35493;50.276;9.372;2023-02-17T03:59:09;13.52;;;8.05;;
49412;SDS011;35493;50.276;9.372;2023-02-17T04:01:36;14.38;;;7.72;;
49412;SDS011;35493;50.276;9.372;2023-02-17T04:04:03;14.32;;;8.45;;
49412;SDS011;35493;50.276;9.372;2023-02-17T04:06:29;14.75;;;7.95;;
49412;SDS011;35493;50.276;9.372;2023-02-17T04:08:57;12.98;;;8.27;;
49412;SDS011;35493;50.276;9.372;2023-02-17T04:11:25;13.27;;;7.90;;
49412;SDS011;35493;50.276;9.372;2023-02-17T04:13:52;12.30;;;7.55;;
49412;SDS011;35493;50.276;9.372;2023-02-17T04:16:18;12.30;;;7.88;;
49412;SDS011;35493;50.276;9.372;2023-02-17T04:18:45;12.57;;;8.20;;
49412;SDS011;35493;50.276;9.372;2023-02-17T04:21:12;12.57;;;8.13;;
49412;SDS011;35493;50.276;9.372;2023-02-17T04:23:39;14.50;;;8.23;;
49412;SDS011;35493;50.276;9.372;2023-02-17T04:26:06;13.40;;;8.10;;
49412;SDS011;35493;50.276;9.372;2023-02-17T04:28:36;13.32;;;7.68;;
49412;SDS011;35493;50.276;9.372;2023-02-17T04:31:04;12.90;;;7.82;;
49412;SDS011;35493;50.276;9.372;2023-02-17T04:33:31;15.50;;;7.95;;
49412;SDS011;35493;50.276;9.372;2023-02-17T04:35:58;12.50;;;7.68;;
49412;SDS011;35493;50.276;9.372;2023-02-17T04:38:27;11.68;;;7.63;;
49412;SDS011;35493;50.276;9.372;2023-02-17T04:40:56;12.35;;;8.15;;
49412;SDS011;35493;50.276;9.372;2023-02-17T04:43:24;12.30;;;7.95;;
49412;SDS011;35493;50.276;9.372;2023-02-17T04:45:53;13.70;;;7.82;;
49412;SDS011;35493;50.276;9.372;2023-02-17T04:48:20;14.85;;;7.65;;
49412;SDS011;35493;50.276;9.372;2023-02-17T04:50:48;12.10;;;7.45;;
49412;SDS011;35493;50.276;9.372;2023-02-17T04:53:15;14.27;;;8.07;;
49412;SDS011;35493;50.276;9.372;2023-02-17T04:55:42;11.63;;;7.18;;
49412;SDS011;35493;50.276;9.372;2023-02-17T04:58:09;12.02;;;7.28;;
49412;SDS011;35493;50.276;9.372;2023-02-17T05:00:36;15.02;;;7.50;;
49412;SDS011;35493;50.276;9.372;2023-02-17T05:03:05;13.57;;;7.32;;
49412;SDS011;35493;50.276;9.372;2023-02-17T05:05:32;12.15;;;7.28;;
49412;SDS011;35493;50.276;9.372;2023-02-17T05:07:59;13.25;;;7.93;;
49412;SDS011;35493;50.276;9.372;2023-02-17T05:10:26;14.95;;;6.63;;
49412;SDS011;35493;50.276;9.372;2023-02-17T05:12:53;10.93;;;6.85;;
49412;SDS011;35493;50.276;9.372;2023-02-17T05:15:20;11.38;;;6.55;;
49412;SDS011;35493;50.276;9.372;2023-02-17T05:17:47;12.35;;;7.50;;
49412;SDS011;35493;50.276;9.372;2023-02-17T05:20:15;13.48;;;6.57;;
49412;SDS011;35493;50.276;9.372;2023-02-17T05:22:42;13.32;;;7.20;;
49412;SDS011;35493;50.276;9.372;2023-02-17T05:25:09;13.38;;;7.25;;
49412;SDS011;35493;50.276;9.372;2023-02-17T05:27:36;11.27;;;6.55;;
49412;SDS011;35493;50.276;9.372;2023-02-17T05:30:03;13.27;;;6.68;;
49412;SDS011;35493;50.276;9.372;2023-02-17T05:32:30;11.02;;;6.75;;
49412;SDS011;35493;50.276;9.372;2023-02-17T05:34:57;10.55;;;6.68;;
49412;SDS011;35493;50.276;9.372;2023-02-17T05:37:26;12.93;;;7.40;;
49412;SDS011;35493;50.276;9.372;2023-02-17T05:39:53;11.32;;;7.32;;
49412;SDS011;35493;50.276;9.372;2023-02-17T05:42:20;12.18;;;7.57;;
49412;SDS011;35493;50.276;9.372;2023-02-17T05:44:47;16.00;;;7.22;;
49412;SDS011;35493;50.276;9.372;2023-02-17T05:47:14;10.98;;;7.00;;
49412;SDS011;35493;50.276;9.372;2023-02-17T05:49:41;10.70;;;6.72;;
49412;SDS011;35493;50.276;9.372;2023-02-17T05:52:09;11.65;;;7.50;;
49412;SDS011;35493;50.276;9.372;2023-02-17T05:54:37;14.18;;;7.25;;
49412;SDS011;35493;50.276;9.372;2023-02-17T05:57:04;13.57;;;6.97;;
49412;SDS011;35493;50.276;9.372;2023-02-17T05:59:31;14.20;;;6.20;;
49412;SDS011;35493;50.276;9.372;2023-02-17T06:01:57;8.40;;;5.75;;
49412;SDS011;35493;50.276;9.372;2023-02-17T06:04:24;12.18;;;6.15;;
49412;SDS011;35493;50.276;9.372;2023-02-17T06:06:51;8.48;;;5.65;;
49412;SDS011;35493;50.276;9.372;2023-02-17T06:09:18;10.63;;;5.85;;
49412;SDS011;35493;50.276;9.372;2023-02-17T06:11:46;9.88;;;5.78;;
49412;SDS011;35493;50.276;9.372;2023-02-17T06:14:13;10.75;;;5.88;;
49412;SDS011;35493;50.276;9.372;2023-02-17T06:16:40;11.48;;;6.43;;
49412;SDS011;35493;50.276;9.372;2023-02-17T06:19:07;11.10;;;6.28;;
49412;SDS011;35493;50.276;9.372;2023-02-17T06:21:34;11.25;;;6.30;;
49412;SDS011;35493;50.276;9.372;2023-02-17T06:24:00;10.05;;;6.05;;
49412;SDS011;35493;50.276;9.372;2023-02-17T06:26:27;9.50;;;6.03;;
49412;SDS011;35493;50.276;9.372;2023-02-17T06:28:55;11.35;;;6.53;;
49412;SDS011;35493;50.276;9.372;2023-02-17T06:31:22;10.00;;;5.38;;
49412;SDS011;35493;50.276;9.372;2023-02-17T06:33:49;12.93;;;6.38;;
49412;SDS011;35493;50.276;9.372;2023-02-17T06:36:16;9.63;;;5.55;;
49412;SDS011;35493;50.276;9.372;2023-02-17T06:38:43;9.18;;;5.80;;
49412;SDS011;35493;50.276;9.372;2023-02-17T06:41:10;10.98;;;5.32;;
49412;SDS011;35493;50.276;9.372;2023-02-17T06:43:39;8.27;;;4.78;;
49412;SDS011;35493;50.276;9.372;2023-02-17T06:46:07;11.43;;;5.25;;
49412;SDS011;35493;50.276;9.372;2023-02-17T06:48:34;9.32;;;5.28;;
49412;SDS011;35493;50.276;9.372;2023-02-17T06:51:00;9.95;;;4.78;;
49412;SDS011;35493;50.276;9.372;2023-02-17T06:53:29;10.93;;;5.43;;
49412;SDS011;35493;50.276;9.372;2023-02-17T06:55:56;10.55;;;5.20;;
49412;SDS011;35493;50.276;9.372;2023-02-17T06:58:23;8.57;;;4.63;;
49412;SDS011;35493;50.276;9.372;2023-02-17T07:00:50;10.10;;;5.40;;
49412;SDS011;35493;50.276;9.372;2023-02-17T07:03:18;8.70;;;4.93;;
49412;SDS011;35493;50.276;9.372;2023-02-17T07:05:45;8.00;;;5.00;;
49412;SDS011;35493;50.276;9.372;2023-02-17T07:08:12;9.65;;;5.18;;
49412;SDS011;35493;50.276;9.372;2023-02-17T07:10:39;8.50;;;4.95;;
49412;SDS011;35493;50.276;9.372;2023-02-17T07:13:06;10.13;;;5.20;;
49412;SDS011;35493;50.276;9.372;2023-02-17T07:15:33;8.70;;;4.97;;
49412;SDS011;35493;50.276;9.372;2023-02-17T07:18:00;7.75;;;4.57;;
49412;SDS011;35493;50.276;9.372;2023-02-17T07:20:29;10.00;;;4.88;;
49412;SDS011;35493;50.276;9.372;2023-02-17T07:22:57;9.63;;;4.90;;
49412;SDS011;35493;50.276;9.372;2023-02-17T07:25:24;7.90;;;4.68;;
49412;SDS011;35493;50.276;9.372;2023-02-17T07:27:51;8.60;;;4.45;;
49412;SDS011;35493;50.276;9.372;2023-02-17T07:30:18;7.63;;;4.05;;
49412;SDS011;35493;50.276;9.372;2023-02-17T07:32:45;9.55;;;4.45;;
49412;SDS011;35493;50.276;9.372;2023-02-17T07:35:12;7.78;;;4.40;;
49412;SDS011;35493;50.276;9.372;2023-02-17T07:37:40;7.70;;;4.32;;
49412;SDS011;35493;50.276;9.372;2023-02-17T07:40:07;9.00;;;4.95;;
49412;SDS011;35493;50.276;9.372;2023-02-17T07:42:34;8.15;;;4.05;;
49412;SDS011;35493;50.276;9.372;2023-02-17T07:45:01;7.30;;;4.07;;
49412;SDS011;35493;50.276;9.372;2023-02-17T07:47:28;7.35;;;3.88;;
49412;SDS011;35493;50.276;9.372;2023-02-17T07:49:56;5.78;;;4.00;;
49412;SDS011;35493;50.276;9.372;2023-02-17T07:52:23;8.25;;;4.65;;
49412;SDS011;35493;50.276;9.372;2023-02-17T07:54:51;6.50;;;3.90;;
49412;SDS011;35493;50.276;9.372;2023-02-17T07:57:18;7.57;;;3.88;;
49412;SDS011;35493;50.276;9.372;2023-02-17T07:59:45;7.57;;;4.20;;
49412;SDS011;35493;50.276;9.372;2023-02-17T08:02:12;6.53;;;3.80;;
49412;SDS011;35493;50.276;9.372;2023-02-17T08:04:39;5.97;;;3.55;;
49412;SDS011;35493;50.276;9.372;2023-02-17T08:07:06;7.60;;;3.55;;
49412;SDS011;35493;50.276;9.372;2023-02-17T08:09:33;6.75;;;3.60;;
49412;SDS011;35493;50.276;9.372;2023-02-17T08:12:19;5.85;;;3.08;;
49412;SDS011;35493;50.276;9.372;2023-02-17T08:15:05;5.57;;;3.17;;
49412;SDS011;35493;50.276;9.372;2023-02-17T08:17:33;5.97;;;3.30;;
49412;SDS011;35493;50.276;9.372;2023-02-17T08:20:03;6.70;;;3.13;;
49412;SDS011;35493;50.276;9.372;2023-02-17T08:22:31;5.40;;;3.28;;
49412;SDS011;35493;50.276;9.372;2023-02-17T08:24:58;4.88;;;3.08;;
49412;SDS011;35493;50.276;9.372;2023-02-17T08:27:26;5.72;;;3.50;;
49412;SDS011;35493;50.276;9.372;2023-02-17T08:29:53;5.32;;;3.03;;
49412;SDS011;35493;50.276;9.372;2023-02-17T08:32:19;6.95;;;3.20;;
49412;SDS011;35493;50.276;9.372;2023-02-17T08:34:46;6.07;;;3.20;;
49412;SDS011;35493;50.276;9.372;2023-02-17T08:37:13;5.28;;;3.00;;
49412;SDS011;35493;50.276;9.372;2023-02-17T08:39:40;6.03;;;3.30;;
49412;SDS011;35493;50.276;9.372;2023-02-17T08:42:07;4.93;;;2.80;;
49412;SDS011;35493;50.276;9.372;2023-02-17T08:44:36;5.95;;;3.10;;
49412;SDS011;35493;50.276;9.372;2023-02-17T08:47:03;5.88;;;3.20;;
49412;SDS011;35493;50.276;9.372;2023-02-17T08:49:32;4.68;;;2.70;;
49412;SDS011;35493;50.276;9.372;2023-02-17T08:51:59;5.72;;;2.70;;
49412;SDS011;35493;50.276;9.372;2023-02-17T08:54:27;5.68;;;3.20;;
49412;SDS011;35493;50.276;9.372;2023-02-17T08:56:54;5.20;;;2.83;;
49412;SDS011;35493;50.276;9.372;2023-02-17T08:59:22;6.65;;;2.88;;
49412;SDS011;35493;50.276;9.372;2023-02-17T09:01:50;6.88;;;3.15;;
49412;SDS011;35493;50.276;9.372;2023-02-17T09:04:17;5.97;;;2.92;;
49412;SDS011;35493;50.276;9.372;2023-02-17T09:06:45;5.65;;;3.38;;
49412;SDS011;35493;50.276;9.372;2023-02-17T09:09:14;7.00;;;3.38;;
49412;SDS011;35493;50.276;9.372;2023-02-17T09:11:42;5.07;;;2.72;;
49412;SDS011;35493;50.276;9.372;2023-02-17T09:14:10;5.22;;;3.00;;
49412;SDS011;35493;50.276;9.372;2023-02-17T09:16:37;6.93;;;3.05;;
49412;SDS011;35493;50.276;9.372;2023-02-17T09:19:05;4.95;;;2.80;;
49412;SDS011;35493;50.276;9.372;2023-02-17T09:21:32;5.32;;;2.92;;
49412;SDS011;35493;50.276;9.372;2023-02-17T09:23:59;5.30;;;2.92;;
49412;SDS011;35493;50.276;9.372;2023-02-17T09:26:26;5.32;;;2.90;;
49412;SDS011;35493;50.276;9.372;2023-02-17T09:28:53;4.65;;;2.60;;
49412;SDS011;35493;50.276;9.372;2023-02-17T09:31:22;6.00;;;2.85;;
49412;SDS011;35493;50.276;9.372;2023-02-17T09:33:50;5.40;;;2.95;;
49412;SDS011;35493;50.276;9.372;2023-02-17T09:36:19;4.93;;;2.83;;
49412;SDS011;35493;50.276;9.372;2023-02-17T09:38:47;4.65;;;2.50;;
49412;SDS011;35493;50.276;9.372;2023-02-17T09:41:15;5.05;;;2.78;;
49412;SDS011;35493;50.276;9.372;2023-02-17T09:43:47;5.07;;;2.75;;
49412;SDS011;35493;50.276;9.372;2023-02-17T09:46:17;5.82;;;2.80;;
49412;SDS011;35493;50.276;9.372;2023-02-17T09:48:49;4.72;;;2.70;;
49412;SDS011;35493;50.276;9.372;2023-02-17T09:51:24;5.95;;;2.95;;
49412;SDS011;35493;50.276;9.372;2023-02-17T09:53:57;5.72;;;3.33;;
49412;SDS011;35493;50.276;9.372;2023-02-17T09:56:31;4.97;;;2.70;;
49412;SDS011;35493;50.276;9.372;2023-02-17T09:59:01;6.18;;;3.17;;
49412;SDS011;35493;50.276;9.372;2023-02-17T10:01:32;6.38;;;2.97;;
49412;SDS011;35493;50.276;9.372;2023-02-17T10:04:01;5.78;;;2.80;;
49412;SDS011;35493;50.276;9.372;2023-02-17T10:06:34;4.53;;;2.40;;
49412;SDS011;35493;50.276;9.372;2023-02-17T10:09:08;4.93;;;2.92;;
49412;SDS011;35493;50.276;9.372;2023-02-17T10:11:41;6.43;;;3.20;;
49412;SDS011;35493;50.276;9.372;2023-02-17T10:14:14;8.15;;;3.08;;
49412;SDS011;35493;50.276;9.372;2023-02-17T10:16:47;4.90;;;2.63;;
49412;SDS011;35493;50.276;9.372;2023-02-17T10:19:19;5.80;;;3.08;;
49412;SDS011;35493;50.276;9.372;2023-02-17T10:21:55;5.40;;;2.80;;
49412;SDS011;35493;50.276;9.372;2023-02-17T10:24:24;6.50;;;3.58;;
49412;SDS011;35493;50.276;9.372;2023-02-17T10:26:55;5.35;;;3.42;;
49412;SDS011;35493;50.276;9.372;2023-02-17T10:29:34;6.03;;;3.25;;
49412;SDS011;35493;50.276;9.372;2023-02-17T10:32:14;5.50;;;3.10;;
49412;SDS011;35493;50.276;9.372;2023-02-17T10:34:50;5.90;;;3.30;;
49412;SDS011;35493;50.276;9.372;2023-02-17T10:37:34;5.30;;;3.08;;
49412;SDS011;35493;50.276;9.372;2023-02-17T10:40:15;5.55;;;3.20;;
49412;SDS011;35493;50.276;9.372;2023-02-17T10:42:44;6.15;;;2.92;;
49412;SDS011;35493;50.276;9.372;2023-02-17T10:45:18;5.55;;;3.30;;
49412;SDS011;35493;50.276;9.372;2023-02-17T10:47:51;6.75;;;3.60;;
49412;SDS011;35493;50.276;9.372;2023-02-17T10:50:23;6.78;;;3.88;;
49412;SDS011;35493;50.276;9.372;2023-02-17T10:52:52;6.30;;;3.75;;
49412;SDS011;35493;50.276;9.372;2023-02-17T10:55:22;6.88;;;3.80;;
49412;SDS011;35493;50.276;9.372;2023-02-17T10:57:57;6.38;;;3.50;;
49412;SDS011;35493;50.276;9.372;2023-02-17T11:00:29;6.43;;;3.55;;
49412;SDS011;35493;50.276;9.372;2023-02-17T11:02:57;6.20;;;3.58;;
49412;SDS011;35493;50.276;9.372;2023-02-17T11:05:25;6.20;;;3.63;;
49412;SDS011;35493;50.276;9.372;2023-02-17T11:07:55;6.13;;;3.47;;
49412;SDS011;35493;50.276;9.372;2023-02-17T11:10:27;7.00;;;4.00;;
49412;SDS011;35493;50.276;9.372;2023-02-17T11:12:56;7.03;;;3.83;;
49412;SDS011;35493;50.276;9.372;2023-02-17T11:15:25;6.72;;;3.53;;
49412;SDS011;35493;50.276;9.372;2023-02-17T11:17:55;6.70;;;3.92;;
49412;SDS011;35493;50.276;9.372;2023-02-17T11:20:31;7.05;;;3.65;;
49412;SDS011;35493;50.276;9.372;2023-02-17T11:23:03;6.28;;;3.30;;
49412;SDS011;35493;50.276;9.372;2023-02-17T11:25:35;4.55;;;2.92;;
49412;SDS011;35493;50.276;9.372;2023-02-17T11:28:04;6.07;;;3.55;;
49412;SDS011;35493;50.276;9.372;2023-02-17T11:30:33;6.30;;;3.47;;
49412;SDS011;35493;50.276;9.372;2023-02-17T11:33:10;6.03;;;3.63;;
49412;SDS011;35493;50.276;9.372;2023-02-17T11:35:44;7.40;;;3.55;;
49412;SDS011;35493;50.276;9.372;2023-02-17T11:38:19;6.10;;;3.28;;
49412;SDS011;35493;50.276;9.372;2023-02-17T11:40:53;6.55;;;3.42;;
49412;SDS011;35493;50.276;9.372;2023-02-17T11:43:24;6.05;;;3.17;;
49412;SDS011;35493;50.276;9.372;2023-02-17T11:48:52;6.20;;;3.40;;
49412;SDS011;35493;50.276;9.372;2023-02-17T11:51:44;6.90;;;3.90;;
49412;SDS011;35493;50.276;9.372;2023-02-17T11:54:22;6.60;;;3.47;;
49412;SDS011;35493;50.276;9.372;2023-02-17T11:56:57;6.93;;;3.42;;
49412;SDS011;35493;50.276;9.372;2023-02-17T11:59:32;6.15;;;3.25;;
49412;SDS011;35493;50.276;9.372;2023-02-17T12:02:14;5.93;;;3.47;;
49412;SDS011;35493;50.276;9.372;2023-02-17T12:04:53;6.75;;;3.47;;
49412;SDS011;35493;50.276;9.372;2023-02-17T12:07:35;6.78;;;3.30;;
49412;SDS011;35493;50.276;9.372;2023-02-17T12:10:10;5.28;;;3.15;;
49412;SDS011;35493;50.276;9.372;2023-02-17T12:12:54;5.30;;;3.15;;
49412;SDS011;35493;50.276;9.372;2023-02-17T12:15:33;6.40;;;3.50;;
49412;SDS011;35493;50.276;9.372;2023-02-17T12:18:25;6.28;;;3.40;;
49412;SDS011;35493;50.276;9.372;2023-02-17T12:21:08;7.65;;;3.35;;
49412;SDS011;35493;50.276;9.372;2023-02-17T12:23:48;6.78;;;3.25;;
49412;SDS011;35493;50.276;9.372;2023-02-17T12:26:29;7.57;;;3.47;;
49412;SDS011;35493;50.276;9.372;2023-02-17T12:29:12;6.90;;;3.35;;
49412;SDS011;35493;50.276;9.372;2023-02-17T12:32:03;8.07;;;3.45;;
49412;SDS011;35493;50.276;9.372;2023-02-17T12:34:45;4.82;;;2.83;;
49412;SDS011;35493;50.276;9.372;2023-02-17T12:37:18;6.65;;;3.00;;
49412;SDS011;35493;50.276;9.372;2023-02-17T12:39:47;5.43;;;3.13;;
49412;SDS011;35493;50.276;9.372;2023-02-17T12:42:20;4.32;;;2.40;;
49412;SDS011;35493;50.276;9.372;2023-02-17T12:44:51;4.38;;;2.60;;
49412;SDS011;35493;50.276;9.372;2023-02-17T12:47:22;4.57;;;2.50;;
49412;SDS011;35493;50.276;9.372;2023-02-17T12:49:55;3.55;;;2.30;;
49412;SDS011;35493;50.276;9.372;2023-02-17T12:52:35;4.90;;;2.55;;
49412;SDS011;35493;50.276;9.372;2023-02-17T12:55:09;3.97;;;2.22;;
49412;SDS011;35493;50.276;9.372;2023-02-17T12:57:43;4.90;;;2.50;;
49412;SDS011;35493;50.276;9.372;2023-02-17T13:00:18;5.40;;;2.30;;
49412;SDS011;35493;50.276;9.372;2023-02-17T13:02:47;4.10;;;2.00;;
49412;SDS011;35493;50.276;9.372;2023-02-17T13:05:17;3.80;;;1.90;;
49412;SDS011;35493;50.276;9.372;2023-02-17T13:07:50;3.53;;;2.17;;
49412;SDS011;35493;50.276;9.372;2023-02-17T13:10:30;4.25;;;2.10;;
49412;SDS011;35493;50.276;9.372;2023-02-17T13:13:02;4.43;;;2.30;;
49412;SDS011;35493;50.276;9.372;2023-02-17T13:15:33;4.72;;;2.50;;
49412;SDS011;35493;50.276;9.372;2023-02-17T13:18:02;4.22;;;2.03;;
49412;SDS011;35493;50.276;9.372;2023-02-17T13:20:39;4.70;;;2.42;;
49412;SDS011;35493;50.276;9.372;2023-02-17T13:23:10;3.70;;;2.03;;
49412;SDS011;35493;50.276;9.372;2023-02-17T13:25:39;3.33;;;2.30;;
49412;SDS011;35493;50.276;9.372;2023-02-17T13:31:14;3.17;;;1.92;;
49412;SDS011;35493;50.276;9.372;2023-02-17T13:33:43;5.10;;;2.40;;
49412;SDS011;35493;50.276;9.372;2023-02-17T13:36:14;4.30;;;2.17;;
49412;SDS011;35493;50.276;9.372;2023-02-17T13:38:56;3.60;;;1.90;;
49412;SDS011;35493;50.276;9.372;2023-02-17T13:41:27;4.35;;;2.20;;
49412;SDS011;35493;50.276;9.372;2023-02-17T13:43:56;4.32;;;2.25;;
49412;SDS011;35493;50.276;9.372;2023-02-17T13:46:24;5.03;;;2.30;;
49412;SDS011;35493;50.276;9.372;2023-02-17T13:48:59;4.93;;;2.53;;
49412;SDS011;35493;50.276;9.372;2023-02-17T13:51:28;4.53;;;2.53;;
49412;SDS011;35493;50.276;9.372;2023-02-17T13:54:02;4.45;;;2.42;;
49412;SDS011;35493;50.276;9.372;2023-02-17T13:56:30;4.75;;;2.30;;
49412;SDS011;35493;50.276;9.372;2023-02-17T13:59:06;5.18;;;3.25;;
49412;SDS011;35493;50.276;9.372;2023-02-17T14:01:34;4.35;;;2.35;;
49412;SDS011;35493;50.276;9.372;2023-02-17T14:04:02;4.95;;;2.53;;
49412;SDS011;35493;50.276;9.372;2023-02-17T14:06:41;5.47;;;2.88;;
49412;SDS011;35493;50.276;9.372;2023-02-17T14:09:11;5.38;;;2.67;;
49412;SDS011;35493;50.276;9.372;2023-02-17T14:11:46;5.80;;;2.75;;
49412;SDS011;35493;50.276;9.372;2023-02-17T14:14:14;4.97;;;2.33;;
49412;SDS011;35493;50.276;9.372;2023-02-17T14:16:42;5.80;;;2.30;;
49412;SDS011;35493;50.276;9.372;2023-02-17T14:19:10;5.43;;;2.30;;
49412;SDS011;35493;50.276;9.372;2023-02-17T14:21:40;5.35;;;2.50;;
49412;SDS011;35493;50.276;9.372;2023-02-17T14:24:22;4.53;;;2.38;;
49412;SDS011;35493;50.276;9.372;2023-02-17T14:29:22;4.93;;;2.35;;
49412;SDS011;35493;50.276;9.372;2023-02-17T14:31:50;5.03;;;2.42;;
49412;SDS011;35493;50.276;9.372;2023-02-17T14:34:24;5.63;;;2.42;;
49412;SDS011;35493;50.276;9.372;2023-02-17T14:36:53;5.07;;;2.17;;
49412;SDS011;35493;50.276;9.372;2023-02-17T14:39:32;5.50;;;2.20;;
49412;SDS011;35493;50.276;9.372;2023-02-17T14:41:59;4.28;;;2.13;;
49412;SDS011;35493;50.276;9.372;2023-02-17T14:44:27;4.28;;;1.92;;
49412;SDS011;35493;50.276;9.372;2023-02-17T14:46:54;4.00;;;2.10;;
49412;SDS011;35493;50.276;9.372;2023-02-17T14:49:21;5.63;;;1.90;;
49412;SDS011;35493;50.276;9.372;2023-02-17T14:51:48;3.58;;;2.00;;
49412;SDS011;35493;50.276;9.372;2023-02-17T14:54:15;3.75;;;1.90;;
49412;SDS011;35493;50.276;9.372;2023-02-17T14:56:44;3.92;;;1.80;;
49412;SDS011;35493;50.276;9.372;2023-02-17T14:59:14;2.85;;;1.58;;
49412;SDS011;35493;50.276;9.372;2023-02-17T15:01:42;3.60;;;1.60;;
49412;SDS011;35493;50.276;9.372;2023-02-17T15:04:09;3.80;;;1.92;;
49412;SDS011;35493;50.276;9.372;2023-02-17T15:06:37;3.88;;;1.90;;
49412;SDS011;35493;50.276;9.372;2023-02-17T15:09:08;5.60;;;2.35;;